createdAt,value
2019-04-03T00:00:13.831Z,10.60
2019-04-03T00:02:42.461Z,10.50
2019-04-03T00:05:11.149Z,10.50
2019-04-03T00:07:39.707Z,10.40
2019-04-03T00:10:09.293Z,10.30
2019-04-03T00:12:40.481Z,10.30
2019-04-03T00:15:09.831Z,10.30
2019-04-03T00:17:38.408Z,10.20
2019-04-03T00:20:08.700Z,10.20
2019-04-03T00:22:38.301Z,10.20
2019-04-03T00:25:07.963Z,10.10
2019-04-03T00:27:36.571Z,10.10
2019-04-03T00:30:07.571Z,10.00
2019-04-03T00:32:36.595Z,10.00
2019-04-03T00:35:11.520Z,10.00
2019-04-03T00:37:40.066Z,9.90
2019-04-03T00:40:09.009Z,9.90
2019-04-03T00:42:37.592Z,9.80
2019-04-03T00:45:07.254Z,9.80
2019-04-03T00:47:36.143Z,9.80
2019-04-03T00:50:06.615Z,9.70
2019-04-03T00:52:35.528Z,9.70
2019-04-03T00:55:05.190Z,9.60
2019-04-03T00:57:33.752Z,9.60
2019-04-03T01:00:02.321Z,9.50
2019-04-03T01:02:30.885Z,9.40
2019-04-03T01:04:59.477Z,9.40
2019-04-03T01:07:29.264Z,9.30
2019-04-03T01:09:59.564Z,9.20
2019-04-03T01:12:30.361Z,9.10
2019-04-03T01:15:01.144Z,9.10
2019-04-03T01:17:29.089Z,9.00
2019-04-03T01:19:57.659Z,9.00
2019-04-03T01:22:26.212Z,8.90
2019-04-03T01:24:54.797Z,8.90
2019-04-03T01:27:23.448Z,8.80
2019-04-03T01:29:52.037Z,8.80
2019-04-03T01:32:20.689Z,8.70
2019-04-03T01:34:49.265Z,8.70
2019-04-03T01:37:19.004Z,8.60
2019-04-03T01:39:49.030Z,8.60
2019-04-03T01:42:18.240Z,8.50
2019-04-03T01:44:46.824Z,8.50
2019-04-03T01:47:15.541Z,8.50
2019-04-03T01:49:44.089Z,8.40
2019-04-03T01:52:12.655Z,8.50
2019-04-03T01:54:41.360Z,8.40
2019-04-03T01:57:09.916Z,8.40
2019-04-03T01:59:38.498Z,8.40
2019-04-03T02:02:08.538Z,8.30
2019-04-03T02:04:37.278Z,8.30
2019-04-03T02:07:05.833Z,8.30
2019-04-03T02:09:34.521Z,8.10
2019-04-03T02:12:03.166Z,8.10
2019-04-03T02:14:31.721Z,7.90
2019-04-03T02:17:00.300Z,8.00
2019-04-03T02:19:28.876Z,7.90
2019-04-03T02:21:58.469Z,7.90
2019-04-03T02:24:27.750Z,7.80
2019-04-03T02:26:56.331Z,7.80
2019-04-03T02:29:24.924Z,7.80
2019-04-03T02:31:53.568Z,7.70
2019-04-03T02:34:22.272Z,7.70
2019-04-03T02:36:51.125Z,7.60
2019-04-03T02:39:19.727Z,7.60
2019-04-03T02:41:48.901Z,7.60
2019-04-03T02:44:19.149Z,7.50
2019-04-03T02:46:47.942Z,7.40
2019-04-03T02:49:16.508Z,7.40
2019-04-03T02:51:46.741Z,7.30
2019-04-03T02:54:30.058Z,7.30
2019-04-03T02:56:59.240Z,7.20
2019-04-03T02:59:27.874Z,7.10
2019-04-03T03:01:56.468Z,7.20
2019-04-03T03:04:26.146Z,7.20
2019-04-03T03:06:55.132Z,7.20
2019-04-03T03:09:23.891Z,7.20
2019-04-03T03:11:55.229Z,7.20
2019-04-03T03:14:23.613Z,7.20
2019-04-03T03:16:53.216Z,7.20
2019-04-03T03:19:23.342Z,7.20
2019-04-03T03:21:54.995Z,7.20
2019-04-03T03:24:23.909Z,7.20
2019-04-03T03:26:52.950Z,7.20
2019-04-03T03:29:25.683Z,7.30
2019-04-03T03:32:11.561Z,7.30
2019-04-03T03:34:45.855Z,7.30
2019-04-03T03:36:59.998Z,7.30
2019-04-03T03:39:27.405Z,7.40
2019-04-03T03:41:58.561Z,7.40
2019-04-03T03:44:28.281Z,7.40
2019-04-03T03:47:01.488Z,7.50
2019-04-03T03:49:29.445Z,7.50
2019-04-03T03:52:02.613Z,7.50
2019-04-03T03:54:29.845Z,7.50
2019-04-03T03:56:59.153Z,7.50
2019-04-03T03:59:27.890Z,7.60
2019-04-03T04:01:56.518Z,7.50
2019-04-03T04:04:25.207Z,7.50
2019-04-03T04:06:53.968Z,7.50
2019-04-03T04:09:22.669Z,7.60
2019-04-03T04:11:52.289Z,7.60
2019-04-03T04:14:23.035Z,7.60
2019-04-03T04:16:51.833Z,7.60
2019-04-03T04:19:21.524Z,7.70
2019-04-03T04:21:50.476Z,7.60
2019-04-03T04:24:38.475Z,7.70
2019-04-03T04:27:07.034Z,7.60
2019-04-03T04:29:35.698Z,7.70
2019-04-03T04:32:04.282Z,7.70
2019-04-03T04:34:32.915Z,7.80
2019-04-03T04:37:02.846Z,7.80
2019-04-03T04:39:32.559Z,7.80
2019-04-03T04:42:03.484Z,7.90
2019-04-03T04:44:31.473Z,8.00
2019-04-03T04:47:00.040Z,8.10
2019-04-03T04:49:28.858Z,8.20
2019-04-03T04:51:57.627Z,8.40
2019-04-03T04:54:26.195Z,8.40
2019-04-03T04:56:54.747Z,8.00
2019-04-03T04:59:23.349Z,8.00
2019-04-03T05:01:51.914Z,8.00
2019-04-03T05:04:20.869Z,8.10
2019-04-03T05:06:49.549Z,8.20
2019-04-03T05:09:18.190Z,8.20
2019-04-03T05:11:46.998Z,8.30
2019-04-03T05:14:15.845Z,8.40
2019-04-03T05:16:45.868Z,8.50
2019-04-03T05:19:18.486Z,8.50
2019-04-03T05:21:45.003Z,8.60
2019-04-03T05:24:13.874Z,8.70
2019-04-03T05:26:42.737Z,8.80
2019-04-03T05:29:11.330Z,8.80
2019-04-03T05:31:39.924Z,8.90
2019-04-03T05:34:08.469Z,8.90
2019-04-03T05:36:37.333Z,8.90
2019-04-03T05:39:07.780Z,9.00
2019-04-03T05:41:36.508Z,9.00
2019-04-03T05:44:05.223Z,9.00
2019-04-03T05:46:36.720Z,9.10
2019-04-03T05:49:04.125Z,9.10
2019-04-03T05:51:32.757Z,9.20
2019-04-03T05:54:01.519Z,9.40
2019-04-03T05:56:30.089Z,9.50
2019-04-03T05:59:01.302Z,9.40
2019-04-03T06:01:29.065Z,9.50
2019-04-03T06:03:57.588Z,9.60
2019-04-03T06:06:26.170Z,9.70
2019-04-03T06:08:56.531Z,9.80
2019-04-03T06:11:24.960Z,9.90
2019-04-03T06:13:53.542Z,9.90
2019-04-03T06:16:24.559Z,10.00
2019-04-03T06:18:52.375Z,10.00
2019-04-03T06:21:21.181Z,10.00
2019-04-03T06:23:50.877Z,10.10
2019-04-03T06:26:20.047Z,10.20
2019-04-03T06:28:48.666Z,10.30
2019-04-03T06:31:17.210Z,10.40
2019-04-03T06:33:45.821Z,10.40
2019-04-03T06:36:16.858Z,10.50
2019-04-03T06:38:46.783Z,10.50
2019-04-03T06:41:15.340Z,10.60
2019-04-03T06:43:43.954Z,10.70
2019-04-03T06:46:12.674Z,10.80
2019-04-03T06:48:41.169Z,10.90
2019-04-03T06:51:09.752Z,11.00
2019-04-03T06:53:38.313Z,11.00
2019-04-03T06:56:08.676Z,11.20
2019-04-03T06:58:39.581Z,11.40
2019-04-03T07:01:07.504Z,11.80
2019-04-03T07:03:36.105Z,12.10
2019-04-03T07:06:07.757Z,12.40
2019-04-03T07:08:40.923Z,12.90
2019-04-03T07:11:09.363Z,13.20
2019-04-03T07:13:38.183Z,13.40
2019-04-03T07:16:06.723Z,13.50
2019-04-03T07:18:38.363Z,13.50
2019-04-03T07:21:07.356Z,13.90
2019-04-03T07:23:35.969Z,14.20
2019-04-03T07:26:05.209Z,13.90
2019-04-03T07:28:34.265Z,14.20
2019-04-03T07:31:03.096Z,14.40
2019-04-03T07:33:31.838Z,14.60
2019-04-03T07:36:00.596Z,14.10
2019-04-03T07:38:29.192Z,14.20
2019-04-03T07:41:01.425Z,14.00
2019-04-03T07:43:30.323Z,14.00
2019-04-03T07:45:59.002Z,14.20
2019-04-03T07:48:27.742Z,14.30
2019-04-03T07:50:56.316Z,14.60
2019-04-03T07:53:25.119Z,14.70
2019-04-03T07:55:55.352Z,15.30
2019-04-03T07:58:25.377Z,15.80
2019-04-03T08:00:55.712Z,15.90
2019-04-03T08:03:24.382Z,15.90
2019-04-03T08:05:55.803Z,15.60
2019-04-03T08:08:23.332Z,15.80
2019-04-03T08:10:52.040Z,16.10
2019-04-03T08:13:20.612Z,16.40
2019-04-03T08:15:49.196Z,16.40
2019-04-03T08:18:20.657Z,16.90
2019-04-03T08:20:48.035Z,17.30
2019-04-03T08:23:16.577Z,17.80
2019-04-03T08:25:48.417Z,18.50
2019-04-03T08:28:15.577Z,19.00
2019-04-03T08:30:44.627Z,18.80
2019-04-03T08:33:17.570Z,19.20
2019-04-03T08:35:43.766Z,20.10
2019-04-03T08:38:13.412Z,20.00
2019-04-03T08:40:57.225Z,20.40
2019-04-03T08:43:25.813Z,20.10
2019-04-03T08:45:54.377Z,20.20
2019-04-03T08:48:22.939Z,20.90
2019-04-03T08:50:51.523Z,20.10
2019-04-03T08:53:20.167Z,20.90
2019-04-03T08:55:48.738Z,20.80
2019-04-03T08:58:17.332Z,21.00
2019-04-03T09:00:49.719Z,21.50
2019-04-03T09:03:21.655Z,22.00
2019-04-03T09:05:50.896Z,21.50
2019-04-03T09:08:20.344Z,20.80
2019-04-03T09:10:49.253Z,20.80
2019-04-03T09:13:22.439Z,21.00
2019-04-03T09:15:50.137Z,21.40
2019-04-03T09:18:19.097Z,21.20
2019-04-03T09:20:47.720Z,21.00
2019-04-03T09:23:16.269Z,21.20
2019-04-03T09:25:45.055Z,21.30
2019-04-03T09:28:13.639Z,21.70
2019-04-03T09:30:42.229Z,21.30
2019-04-03T09:33:10.849Z,22.10
2019-04-03T09:35:42.291Z,22.30
2019-04-03T09:38:11.354Z,21.50
2019-04-03T09:40:39.889Z,21.40
2019-04-03T09:43:08.459Z,21.70
2019-04-03T09:45:37.144Z,22.20
2019-04-03T09:48:06.216Z,22.40
2019-04-03T09:50:35.030Z,22.70
2019-04-03T09:53:04.156Z,22.90
2019-04-03T09:55:36.025Z,22.80
2019-04-03T09:58:04.200Z,22.70
2019-04-03T10:00:33.007Z,22.80
2019-04-03T10:03:01.835Z,23.30
2019-04-03T10:05:30.606Z,23.20
2019-04-03T10:07:59.342Z,22.80
2019-04-03T10:10:28.127Z,22.90
2019-04-03T10:12:56.660Z,22.80
2019-04-03T10:15:32.724Z,21.10
2019-04-03T10:18:01.042Z,22.50
2019-04-03T10:20:29.685Z,22.30
2019-04-03T10:22:58.522Z,22.90
2019-04-03T10:25:31.070Z,23.00
2019-04-03T10:28:01.148Z,22.60
2019-04-03T10:30:29.948Z,23.40
2019-04-03T10:32:59.577Z,23.40
2019-04-03T10:35:28.719Z,23.20
2019-04-03T10:37:57.654Z,22.30
2019-04-03T10:41:27.653Z,22.40
2019-04-03T10:43:05.912Z,22.70
2019-04-03T10:45:33.990Z,23.10
2019-04-03T10:48:05.879Z,21.50
2019-04-03T10:50:36.239Z,21.40
2019-04-03T10:53:03.612Z,21.70
2019-04-03T10:55:32.480Z,22.20
2019-04-03T10:58:02.435Z,22.00
2019-04-03T11:00:31.341Z,22.10
2019-04-03T11:03:00.056Z,22.30
2019-04-03T11:05:28.696Z,21.50
2019-04-03T11:07:57.336Z,22.20
2019-04-03T11:10:26.247Z,22.10
2019-04-03T11:12:54.932Z,21.60
2019-04-03T11:15:23.643Z,21.20
2019-04-03T11:17:52.565Z,21.10
2019-04-03T11:20:21.231Z,21.30
2019-04-03T11:22:49.954Z,21.20
2019-04-03T11:25:18.655Z,21.10
2019-04-03T11:27:47.431Z,21.30
2019-04-03T11:30:23.592Z,22.20
2019-04-03T11:32:48.608Z,23.00
2019-04-03T11:35:18.904Z,22.50
2019-04-03T11:37:47.668Z,22.10
2019-04-03T11:40:18.126Z,23.90
2019-04-03T11:42:47.736Z,23.90
2019-04-03T11:45:18.236Z,24.60
2019-04-03T11:47:47.356Z,23.60
2019-04-03T11:50:18.128Z,23.20
2019-04-03T11:52:46.823Z,23.50
2019-04-03T11:55:16.015Z,23.80
2019-04-03T11:57:47.459Z,23.60
2019-04-03T12:00:20.308Z,22.90
2019-04-03T12:02:49.054Z,23.00
2019-04-03T12:05:20.589Z,22.10
2019-04-03T12:07:48.599Z,22.30
2019-04-03T12:10:17.340Z,21.60
2019-04-03T12:12:46.009Z,21.50
2019-04-03T12:15:16.203Z,21.00
2019-04-03T12:17:45.493Z,21.30
2019-04-03T12:20:16.460Z,21.50
2019-04-03T12:22:45.252Z,21.70
2019-04-03T12:25:14.543Z,21.30
2019-04-03T12:27:44.934Z,21.20
2019-04-03T12:30:14.071Z,22.10
2019-04-03T12:32:48.593Z,22.00
2019-04-03T12:35:15.196Z,21.00
2019-04-03T12:37:43.831Z,21.20
2019-04-03T12:40:13.088Z,21.10
2019-04-03T12:42:41.770Z,20.80
2019-04-03T12:45:11.032Z,21.00
2019-04-03T12:47:42.831Z,21.20
2019-04-03T12:50:12.903Z,21.60
2019-04-03T12:52:43.236Z,21.20
2019-04-03T12:55:11.720Z,21.20
2019-04-03T12:57:40.400Z,21.00
2019-04-03T13:00:12.992Z,20.70
2019-04-03T13:02:42.351Z,20.70
2019-04-03T13:05:12.150Z,21.20
2019-04-03T13:07:40.801Z,21.10
2019-04-03T13:10:10.225Z,21.00
2019-04-03T13:12:39.183Z,21.70
2019-04-03T13:15:11.767Z,21.90
2019-04-03T13:17:42.890Z,21.50
2019-04-03T13:20:12.265Z,21.60
2019-04-03T13:22:42.537Z,21.50
2019-04-03T13:25:11.222Z,21.80
2019-04-03T13:27:39.866Z,22.00
2019-04-03T13:30:12.203Z,22.00
2019-04-03T13:32:39.837Z,21.70
2019-04-03T13:35:09.192Z,21.60
2019-04-03T13:37:37.803Z,21.20
2019-04-03T13:40:10.622Z,21.10
2019-04-03T13:42:39.206Z,21.00
2019-04-03T13:45:09.443Z,20.70
2019-04-03T13:47:41.601Z,20.60
2019-04-03T13:50:09.830Z,20.70
2019-04-03T13:52:42.339Z,20.80
2019-04-03T13:55:09.127Z,20.80
2019-04-03T13:57:37.850Z,20.70
2019-04-03T14:00:18.183Z,20.70
2019-04-03T14:02:38.609Z,20.60
2019-04-03T14:05:08.897Z,20.50
2019-04-03T14:07:40.383Z,20.40
2019-04-03T14:10:09.783Z,20.60
2019-04-03T14:12:43.057Z,20.60
2019-04-03T14:15:09.145Z,20.50
2019-04-03T14:17:37.783Z,20.90
2019-04-03T14:20:08.103Z,21.20
2019-04-03T14:22:37.385Z,21.10
2019-04-03T14:25:17.919Z,21.50
2019-04-03T14:27:38.441Z,21.60
2019-04-03T14:30:11.068Z,22.10
2019-04-03T14:32:39.393Z,21.50
2019-04-03T14:35:38.241Z,21.20
2019-04-03T14:37:38.827Z,21.10
2019-04-03T14:40:11.372Z,20.90
2019-04-03T14:42:38.853Z,20.90
2019-04-03T14:45:09.151Z,20.80
2019-04-03T14:47:37.757Z,20.70
2019-04-03T14:50:08.160Z,20.70
2019-04-03T14:52:37.243Z,20.40
2019-04-03T14:55:20.297Z,20.30
2019-04-03T14:57:39.307Z,20.10
2019-04-03T15:00:24.798Z,20.00
2019-04-03T15:02:41.367Z,19.80
2019-04-03T15:05:10.819Z,19.90
2019-04-03T15:07:40.414Z,20.00
2019-04-03T15:10:09.573Z,19.90
2019-04-03T15:12:39.800Z,19.90
2019-04-03T15:15:09.632Z,19.90
2019-04-03T15:17:38.877Z,19.80
2019-04-03T15:20:09.585Z,19.70
2019-04-03T15:22:38.434Z,19.70
2019-04-03T15:25:08.753Z,19.70
2019-04-03T15:27:38.120Z,19.60
2019-04-03T15:30:10.875Z,19.60
2019-04-03T15:32:39.682Z,19.50
2019-04-03T15:35:09.161Z,19.50
2019-04-03T15:37:39.928Z,19.40
2019-04-03T15:40:08.392Z,19.50
2019-04-03T15:42:40.241Z,19.30
2019-04-03T15:45:09.019Z,19.20
2019-04-03T15:47:41.748Z,19.20
2019-04-03T15:50:08.978Z,19.10
2019-04-03T15:52:38.573Z,19.20
2019-04-03T15:55:07.898Z,19.10
2019-04-03T15:57:39.496Z,19.20
2019-04-03T16:00:09.932Z,19.10
2019-04-03T16:02:39.227Z,19.00
2019-04-03T16:05:08.462Z,18.90
2019-04-03T16:07:40.467Z,18.90
2019-04-03T16:10:07.621Z,18.80
2019-04-03T16:12:38.333Z,18.80
2019-04-03T16:15:09.575Z,18.70
2019-04-03T16:17:39.153Z,18.70
2019-04-03T16:20:09.023Z,18.60
2019-04-03T16:22:38.167Z,18.60
2019-04-03T16:25:08.003Z,18.60
2019-04-03T16:27:36.677Z,18.40
2019-04-03T16:30:08.261Z,18.40
2019-04-03T16:32:37.087Z,18.30
2019-04-03T16:35:07.734Z,18.30
2019-04-03T16:37:37.118Z,18.20
2019-04-03T16:40:09.368Z,18.10
2019-04-03T16:42:38.091Z,18.10
2019-04-03T16:45:09.417Z,18.00
2019-04-03T16:47:39.184Z,17.90
2019-04-03T16:50:09.080Z,17.90
2019-04-03T16:52:38.665Z,17.80
2019-04-03T16:55:09.217Z,17.80
2019-04-03T16:57:38.314Z,17.70
2019-04-03T17:00:10.076Z,17.70
2019-04-03T17:02:38.840Z,17.70
2019-04-03T17:05:10.472Z,17.60
2019-04-03T17:07:38.599Z,17.60
2019-04-03T17:10:10.454Z,17.50
2019-04-03T17:12:39.290Z,17.50
2019-04-03T17:15:09.757Z,17.40
2019-04-03T17:17:39.066Z,17.40
2019-04-03T17:20:09.399Z,17.30
2019-04-03T17:22:40.212Z,17.20
2019-04-03T17:25:08.884Z,17.20
2019-04-03T17:27:37.812Z,17.20
2019-04-03T17:30:10.068Z,17.20
2019-04-03T17:32:39.183Z,17.10
2019-04-03T17:35:08.619Z,17.10
2019-04-03T17:37:37.520Z,17.00
2019-04-03T17:40:11.077Z,17.00
2019-04-03T17:42:40.237Z,16.90
2019-04-03T17:45:09.632Z,16.90
2019-04-03T17:47:38.224Z,16.90
2019-04-03T17:50:11.568Z,16.80
2019-04-03T17:52:40.264Z,16.80
2019-04-03T17:55:12.002Z,16.70
2019-04-03T17:57:40.637Z,16.70
2019-04-03T18:00:15.415Z,16.70
2019-04-03T18:02:44.066Z,16.70
2019-04-03T18:05:13.220Z,16.60
2019-04-03T18:07:41.797Z,16.50
2019-04-03T18:10:12.615Z,16.60
2019-04-03T18:12:41.098Z,16.50
2019-04-03T18:15:10.567Z,16.50
2019-04-03T18:17:39.160Z,16.50
2019-04-03T18:20:12.562Z,16.50
2019-04-03T18:22:39.851Z,16.50
2019-04-03T18:25:08.752Z,16.40
2019-04-03T18:27:37.280Z,16.40
2019-04-03T18:30:11.428Z,16.40
2019-04-03T18:32:38.857Z,16.30
2019-04-03T18:35:07.997Z,16.20
2019-04-03T18:37:36.617Z,16.20
2019-04-03T18:40:07.949Z,16.20
2019-04-03T18:42:36.508Z,16.20
2019-04-03T18:45:06.762Z,16.20
2019-04-03T18:47:41.024Z,16.20
2019-04-03T18:50:09.663Z,16.20
2019-04-03T18:52:38.713Z,16.20
2019-04-03T18:55:07.278Z,16.30
2019-04-03T18:57:36.649Z,16.40
2019-04-03T19:00:08.288Z,16.30
2019-04-03T19:02:36.992Z,16.30
2019-04-03T19:05:10.083Z,16.30
2019-04-03T19:07:37.768Z,16.30
2019-04-03T19:10:07.894Z,16.30
2019-04-03T19:12:36.624Z,16.20
2019-04-03T19:15:07.240Z,16.20
2019-04-03T19:17:35.977Z,16.20
2019-04-03T19:20:10.694Z,16.20
2019-04-03T19:22:36.674Z,16.20
2019-04-03T19:25:07.703Z,16.10
2019-04-03T19:27:36.378Z,16.10
2019-04-03T19:30:07.866Z,16.00
2019-04-03T19:32:36.578Z,16.00
2019-04-03T19:35:09.104Z,15.90
2019-04-03T19:37:37.512Z,15.90
2019-04-03T19:40:09.875Z,15.80
2019-04-03T19:42:38.741Z,15.70
2019-04-03T19:45:08.881Z,15.70
2019-04-03T19:47:37.504Z,15.70
2019-04-03T19:50:08.141Z,15.60
2019-04-03T19:52:37.327Z,15.50
2019-04-03T19:55:07.322Z,15.40
2019-04-03T19:57:35.882Z,15.40
2019-04-03T20:00:08.822Z,15.40
2019-04-03T20:02:38.245Z,15.40
2019-04-03T20:05:07.943Z,15.30
2019-04-03T20:07:36.648Z,15.10
2019-04-03T20:10:10.092Z,15.10
2019-04-03T20:12:38.797Z,15.10
2019-04-03T20:15:08.921Z,15.00
2019-04-03T20:17:37.566Z,14.80
2019-04-03T20:20:07.678Z,14.70
2019-04-03T20:22:37.872Z,14.60
2019-04-03T20:25:07.222Z,14.60
2019-04-03T20:27:35.944Z,14.60
2019-04-03T20:30:06.551Z,14.70
2019-04-03T20:32:35.224Z,14.60
2019-04-03T20:35:05.118Z,14.50
2019-04-03T20:37:33.800Z,14.60
2019-04-03T20:40:02.614Z,14.30
2019-04-03T20:42:31.291Z,14.20
2019-04-03T20:44:59.848Z,13.90
2019-04-03T20:47:28.433Z,13.40
2019-04-03T20:49:58.236Z,13.10
2019-04-03T20:52:26.915Z,12.80
2019-04-03T20:54:55.558Z,12.60
2019-04-03T20:57:24.206Z,12.30
2019-04-03T21:00:01.666Z,11.80
2019-04-03T21:02:23.293Z,11.20
2019-04-03T21:04:51.852Z,11.10
2019-04-03T21:07:23.654Z,10.90
2019-04-03T21:09:50.665Z,10.80
2019-04-03T21:12:19.282Z,10.60
2019-04-03T21:14:47.926Z,10.50
2019-04-03T21:17:18.515Z,10.20
2019-04-03T21:19:46.858Z,10.10
2019-04-03T21:22:15.518Z,9.90
2019-04-03T21:24:44.100Z,9.60
2019-04-03T21:27:12.777Z,9.50
2019-04-03T21:29:41.372Z,9.30
2019-04-03T21:32:10.703Z,9.20
2019-04-03T21:34:39.385Z,9.20
2019-04-03T21:37:09.585Z,9.10
2019-04-03T21:39:38.208Z,9.20
2019-04-03T21:42:06.784Z,9.10
2019-04-03T21:44:35.356Z,9.00
2019-04-03T21:47:04.213Z,9.00
2019-04-03T21:49:32.910Z,8.80
2019-04-03T21:52:04.293Z,8.80
2019-04-03T21:54:32.834Z,8.70
2019-04-03T21:57:01.585Z,8.70
2019-04-03T21:59:31.777Z,8.60
2019-04-03T22:02:00.433Z,8.60
2019-04-03T22:04:29.194Z,8.50
2019-04-03T22:06:58.298Z,8.40
2019-04-03T22:09:34.524Z,8.40
2019-04-03T22:12:05.685Z,8.30
2019-04-03T22:14:35.782Z,8.20
2019-04-03T22:17:04.601Z,8.10
2019-04-03T22:19:33.386Z,8.00
2019-04-03T22:22:03.081Z,7.90
2019-04-03T22:24:32.357Z,7.70
2019-04-03T22:27:01.487Z,7.70
2019-04-03T22:29:30.071Z,7.70
2019-04-03T22:31:58.665Z,7.70
2019-04-03T22:34:29.623Z,7.60
2019-04-03T22:36:57.477Z,7.60
2019-04-03T22:39:26.229Z,7.60
2019-04-03T22:41:54.797Z,7.60
2019-04-03T22:44:23.373Z,7.50
2019-04-03T22:46:52.091Z,7.50
2019-04-03T22:49:22.373Z,7.50
2019-04-03T22:51:50.938Z,7.30
2019-04-03T22:54:19.514Z,7.20
2019-04-03T22:56:50.247Z,7.30
2019-04-03T22:59:19.437Z,7.30
2019-04-03T23:01:48.476Z,7.30
2019-04-03T23:04:21.948Z,7.30
2019-04-03T23:06:52.954Z,7.20
2019-04-03T23:09:24.733Z,7.10
2019-04-03T23:11:51.733Z,7.10
2019-04-03T23:14:20.416Z,7.00
2019-04-03T23:16:49.278Z,6.90
2019-04-03T23:19:18.890Z,6.80
2019-04-03T23:21:48.042Z,6.80
2019-04-03T23:24:16.962Z,6.70
2019-04-03T23:26:45.911Z,6.70
2019-04-03T23:29:14.458Z,6.70
2019-04-03T23:31:45.027Z,6.60
2019-04-03T23:34:13.237Z,6.70
2019-04-03T23:36:41.789Z,6.60
2019-04-03T23:39:29.891Z,6.60
2019-04-03T23:41:59.047Z,6.70
2019-04-03T23:44:27.717Z,6.60
2019-04-03T23:46:56.277Z,6.60
2019-04-03T23:49:24.958Z,6.50
2019-04-03T23:51:53.560Z,6.50
2019-04-03T23:54:22.437Z,6.50
2019-04-03T23:56:52.974Z,6.50
2019-04-03T23:59:21.571Z,6.40
